createdAt,value
2022-10-14T00:00:41.188Z,100013.50
2022-10-14T00:02:54.715Z,99997.75
2022-10-14T00:05:10.121Z,100017.94
2022-10-14T00:07:24.789Z,99989.91
2022-10-14T00:09:40.040Z,100002.13
2022-10-14T00:11:58.278Z,100003.88
2022-10-14T00:14:16.556Z,100017.94
2022-10-14T00:16:31.143Z,100017.00
2022-10-14T00:18:48.191Z,99990.63
2022-10-14T00:21:03.490Z,100019.28
2022-10-14T00:23:16.976Z,99997.44
2022-10-14T00:25:32.011Z,100004.25
2022-10-14T00:27:45.462Z,99958.63
2022-10-14T00:30:02.883Z,100011.94
2022-10-14T00:32:17.629Z,100011.84
2022-10-14T00:34:44.056Z,100017.91
2022-10-14T00:36:57.150Z,99966.03
2022-10-14T00:39:11.956Z,99992.50
2022-10-14T00:41:34.265Z,100014.34
2022-10-14T00:44:02.815Z,99998.50
2022-10-14T00:46:15.021Z,99996.84
2022-10-14T00:48:29.890Z,99987.06
2022-10-14T00:50:35.614Z,100009.91
2022-10-14T00:52:41.095Z,100016.78
2022-10-14T00:54:49.297Z,100011.59
2022-10-14T00:56:52.558Z,99996.66
2022-10-14T00:59:07.058Z,100004.56
2022-10-14T01:01:20.298Z,100007.31
2022-10-14T01:03:33.496Z,100013.50
2022-10-14T01:05:56.027Z,100016.19
2022-10-14T01:08:20.393Z,99966.22
2022-10-14T01:10:40.299Z,100015.44
2022-10-14T01:13:06.543Z,100015.44
2022-10-14T01:15:40.946Z,100025.06
2022-10-14T01:18:10.237Z,100019.94
2022-10-14T01:20:30.645Z,100017.34
2022-10-14T01:22:54.634Z,99994.66
2022-10-14T01:25:32.265Z,100005.19
2022-10-14T01:28:16.673Z,100011.38
2022-10-14T01:30:58.293Z,100000.94
2022-10-14T01:33:16.544Z,100000.00
2022-10-14T01:35:37.907Z,100001.78
2022-10-14T01:37:58.401Z,100003.88
2022-10-14T01:40:17.512Z,100007.19
2022-10-14T01:42:35.447Z,99994.81
2022-10-14T01:44:56.819Z,99998.19
2022-10-14T01:47:15.373Z,100002.34
2022-10-14T01:49:40.342Z,99999.56
2022-10-14T01:52:04.489Z,100003.69
2022-10-14T01:54:27.995Z,99995.53
2022-10-14T01:56:45.444Z,99979.56
2022-10-14T01:58:50.327Z,99990.69
2022-10-14T02:00:52.404Z,99994.78
2022-10-14T02:02:54.709Z,99997.19
2022-10-14T02:04:56.832Z,100000.41
2022-10-14T02:07:16.703Z,100003.69
2022-10-14T02:10:01.360Z,100007.78
2022-10-14T02:12:21.497Z,100003.16
2022-10-14T02:14:38.596Z,100010.81
2022-10-14T02:17:21.577Z,99993.22
2022-10-14T02:19:44.781Z,100001.59
2022-10-14T02:22:10.946Z,100000.47
2022-10-14T02:24:29.735Z,100005.38
2022-10-14T02:26:44.496Z,99992.81
2022-10-14T02:29:12.506Z,100005.69
2022-10-14T02:31:29.213Z,99996.56
2022-10-14T02:33:48.709Z,100011.13
2022-10-14T02:35:52.187Z,100001.16
2022-10-14T02:37:56.446Z,99956.25
2022-10-14T02:40:05.230Z,100011.13
2022-10-14T02:42:07.867Z,99996.84
2022-10-14T02:44:21.702Z,100001.03
2022-10-14T02:46:39.221Z,99998.22
2022-10-14T02:48:55.144Z,100010.16
2022-10-14T02:50:57.242Z,100016.00
2022-10-14T02:52:59.528Z,100008.69
2022-10-14T02:55:01.855Z,100001.56
2022-10-14T02:57:05.667Z,100008.25
2022-10-14T02:59:18.672Z,100007.94
2022-10-14T03:01:45.883Z,100010.34
2022-10-14T03:04:00.488Z,100009.31
2022-10-14T03:06:14.733Z,100016.91
2022-10-14T03:08:28.923Z,99993.09
2022-10-14T03:10:48.232Z,100002.44
2022-10-14T03:13:02.331Z,100010.88
2022-10-14T03:15:21.098Z,100013.28
2022-10-14T03:17:33.875Z,100003.44
2022-10-14T03:19:51.220Z,100010.34
2022-10-14T03:22:05.284Z,100007.56
2022-10-14T03:24:19.639Z,99990.75
2022-10-14T03:26:38.607Z,99957.91
2022-10-14T03:28:52.795Z,99994.88
2022-10-14T03:31:10.266Z,99998.97
2022-10-14T03:33:43.619Z,100002.25
2022-10-14T03:35:59.648Z,99998.69
2022-10-14T03:38:26.398Z,99995.94
2022-10-14T03:40:40.549Z,99992.53
2022-10-14T03:43:00.976Z,99994.03
2022-10-14T03:45:21.819Z,99995.06
2022-10-14T03:47:35.982Z,99980.81
2022-10-14T03:49:48.778Z,99986.22
2022-10-14T03:52:09.281Z,99988.03
2022-10-14T03:54:23.534Z,99991.44
2022-10-14T03:56:37.623Z,99987.19
2022-10-14T03:58:40.138Z,99992.50
2022-10-14T04:00:47.279Z,99984.56
2022-10-14T04:03:05.569Z,99978.53
2022-10-14T04:05:14.773Z,99985.56
2022-10-14T04:07:30.260Z,99988.31
2022-10-14T04:09:44.418Z,99982.13
2022-10-14T04:11:59.068Z,99986.38
2022-10-14T04:14:24.506Z,99985.63
2022-10-14T04:16:27.282Z,99988.34
2022-10-14T04:18:37.158Z,99984.84
2022-10-14T04:20:40.377Z,99988.59
2022-10-14T04:22:59.332Z,99990.47
2022-10-14T04:25:13.487Z,99990.63
2022-10-14T04:27:27.781Z,99980.16
2022-10-14T04:29:48.275Z,99973.41
2022-10-14T04:32:13.113Z,99998.22
2022-10-14T04:34:26.379Z,99988.63
2022-10-14T04:36:40.742Z,99986.41
2022-10-14T04:39:07.532Z,99995.38
2022-10-14T04:41:23.315Z,99985.59
2022-10-14T04:43:36.105Z,100000.38
2022-10-14T04:46:04.605Z,99989.44
2022-10-14T04:48:20.333Z,99978.16
2022-10-14T04:50:34.439Z,99976.59
2022-10-14T04:53:10.575Z,99977.81
2022-10-14T04:55:33.903Z,99973.63
2022-10-14T04:57:47.428Z,99984.16
2022-10-14T05:00:02.145Z,99967.75
2022-10-14T05:02:51.160Z,99967.50
2022-10-14T05:05:06.981Z,99965.06
2022-10-14T05:07:24.292Z,99976.84
2022-10-14T05:09:48.286Z,99968.81
2022-10-14T05:12:12.032Z,99960.13
2022-10-14T05:14:22.751Z,99964.56
2022-10-14T05:16:35.077Z,99937.50
2022-10-14T05:18:37.726Z,99969.22
2022-10-14T05:20:44.752Z,99966.75
2022-10-14T05:22:47.668Z,99970.94
2022-10-14T05:24:50.299Z,99943.53
2022-10-14T05:26:53.272Z,99958.41
2022-10-14T05:28:55.621Z,99965.59
2022-10-14T05:30:58.679Z,99957.94
2022-10-14T05:33:01.001Z,99958.72
2022-10-14T05:35:03.137Z,99970.22
2022-10-14T05:37:22.182Z,99963.94
2022-10-14T05:39:37.972Z,99953.22
2022-10-14T05:41:52.152Z,99964.06
2022-10-14T05:43:59.006Z,99969.44
2022-10-14T05:46:01.290Z,99959.59
2022-10-14T05:48:06.276Z,99967.91
2022-10-14T05:50:08.732Z,99958.31
2022-10-14T05:52:22.639Z,99973.22
2022-10-14T05:54:36.821Z,99963.09
2022-10-14T05:56:52.520Z,99972.88
2022-10-14T05:59:18.338Z,99970.31
2022-10-14T06:01:34.685Z,99965.94
2022-10-14T06:03:50.984Z,99968.34
2022-10-14T06:06:08.298Z,99963.94
2022-10-14T06:08:22.588Z,99975.00
2022-10-14T06:10:36.196Z,99962.56
2022-10-14T06:12:50.284Z,99971.97
2022-10-14T06:15:04.545Z,99956.78
2022-10-14T06:17:20.227Z,99969.25
2022-10-14T06:19:34.213Z,99978.94
2022-10-14T06:21:36.339Z,99981.56
2022-10-14T06:23:38.447Z,99976.28
2022-10-14T06:25:40.610Z,99992.75
2022-10-14T06:27:42.755Z,99969.97
2022-10-14T06:29:56.411Z,99976.84
2022-10-14T06:32:10.634Z,99985.47
2022-10-14T06:34:24.930Z,99982.69
2022-10-14T06:36:39.084Z,99995.59
2022-10-14T06:38:53.424Z,99992.81
2022-10-14T06:41:07.455Z,99992.72
2022-10-14T06:43:22.546Z,99987.34
2022-10-14T06:45:35.818Z,99982.94
2022-10-14T06:47:50.023Z,99974.16
2022-10-14T06:50:07.280Z,99983.72
2022-10-14T06:52:20.203Z,99989.00
2022-10-14T06:54:38.913Z,99979.38
2022-10-14T06:56:54.703Z,99989.06
2022-10-14T06:58:58.008Z,99976.81
2022-10-14T07:01:07.074Z,99984.59
2022-10-14T07:03:09.230Z,99985.47
2022-10-14T07:05:11.550Z,100004.63
2022-10-14T07:07:25.163Z,100003.78
2022-10-14T07:09:39.420Z,99989.81
2022-10-14T07:11:52.132Z,100000.38
2022-10-14T07:14:06.078Z,99999.59
2022-10-14T07:16:20.316Z,100014.63
2022-10-14T07:18:34.488Z,99968.66
2022-10-14T07:20:47.363Z,99986.41
2022-10-14T07:23:01.792Z,100011.88
2022-10-14T07:25:14.238Z,100000.66
2022-10-14T07:27:28.866Z,100003.31
2022-10-14T07:29:43.701Z,100012.91
2022-10-14T07:32:22.812Z,100011.19
2022-10-14T07:34:37.115Z,99996.31
2022-10-14T07:36:39.505Z,99999.78
2022-10-14T07:38:46.012Z,100009.38
2022-10-14T07:40:57.816Z,99997.97
2022-10-14T07:43:01.847Z,99997.06
2022-10-14T07:45:17.689Z,99990.97
2022-10-14T07:47:33.001Z,99997.91
2022-10-14T07:49:47.489Z,100004.00
2022-10-14T07:51:49.924Z,100007.50
2022-10-14T07:53:53.225Z,99997.91
2022-10-14T07:55:58.913Z,99998.75
2022-10-14T07:58:01.062Z,99985.66
2022-10-14T08:00:15.406Z,99990.00
2022-10-14T08:02:29.509Z,99998.75
2022-10-14T08:04:43.766Z,99997.00
2022-10-14T08:06:58.197Z,99986.53
2022-10-14T08:09:12.386Z,99978.72
2022-10-14T08:11:28.357Z,99989.19
2022-10-14T08:13:45.289Z,99986.56
2022-10-14T08:15:59.666Z,99989.22
2022-10-14T08:18:13.662Z,99970.91
2022-10-14T08:20:27.001Z,99993.63
2022-10-14T08:22:43.337Z,99994.47
2022-10-14T08:24:57.315Z,99977.03
2022-10-14T08:27:10.849Z,99985.78
2022-10-14T08:29:13.436Z,99981.41
2022-10-14T08:31:16.598Z,99982.31
2022-10-14T08:33:18.740Z,99986.69
2022-10-14T08:35:21.228Z,99985.78
2022-10-14T08:37:34.829Z,99984.94
2022-10-14T08:39:48.681Z,99981.47
2022-10-14T08:42:19.267Z,99982.34
2022-10-14T08:44:34.034Z,99991.09
2022-10-14T08:46:36.125Z,99984.94
2022-10-14T08:48:39.577Z,99961.41
2022-10-14T08:50:49.537Z,99957.03
2022-10-14T08:53:10.525Z,99968.38
2022-10-14T08:55:36.889Z,99985.00
2022-10-14T08:58:20.095Z,99971.06
2022-10-14T09:00:38.072Z,99978.06
2022-10-14T09:02:52.042Z,99977.19
2022-10-14T09:05:04.681Z,99971.06
2022-10-14T09:07:20.098Z,99978.06
2022-10-14T09:09:46.357Z,99972.84
2022-10-14T09:12:06.288Z,99968.50
2022-10-14T09:14:24.576Z,99941.44
2022-10-14T09:16:40.357Z,99966.69
2022-10-14T09:18:59.015Z,99963.94
2022-10-14T09:21:40.424Z,99946.38
2022-10-14T09:24:10.290Z,99963.66
2022-10-14T09:26:24.359Z,99956.53
2022-10-14T09:28:41.375Z,99949.44
2022-10-14T09:30:55.392Z,99951.09
2022-10-14T09:33:20.904Z,99968.50
2022-10-14T09:35:42.471Z,99946.78
2022-10-14T09:37:55.661Z,99962.69
2022-10-14T09:40:12.662Z,99961.06
2022-10-14T09:42:40.678Z,99955.00
2022-10-14T09:44:42.809Z,99952.34
2022-10-14T09:47:08.164Z,99958.41
2022-10-14T09:49:19.353Z,99958.38
2022-10-14T09:51:23.969Z,99960.09
2022-10-14T09:53:56.504Z,99956.72
2022-10-14T09:56:10.834Z,99942.88
2022-10-14T09:58:32.618Z,99957.78
2022-10-14T10:00:47.481Z,99950.91
2022-10-14T10:03:01.503Z,99941.34
2022-10-14T10:05:29.230Z,99955.31
2022-10-14T10:07:41.287Z,99958.81
2022-10-14T10:09:59.749Z,99955.34
2022-10-14T10:12:31.680Z,99942.28
2022-10-14T10:14:59.143Z,99937.03
2022-10-14T10:17:19.428Z,99956.19
2022-10-14T10:19:44.127Z,99958.78
2022-10-14T10:24:37.368Z,99960.53
2022-10-14T10:26:51.699Z,99950.94
2022-10-14T10:29:06.315Z,99940.53
2022-10-14T10:31:32.521Z,99950.13
2022-10-14T10:34:13.436Z,99958.88
2022-10-14T10:36:33.645Z,99975.44
2022-10-14T10:39:13.553Z,99962.34
2022-10-14T10:41:32.970Z,99964.97
2022-10-14T10:44:01.567Z,99964.00
2022-10-14T10:46:17.852Z,99961.28
2022-10-14T10:48:45.410Z,99956.84
2022-10-14T10:51:26.877Z,99955.94
2022-10-14T10:53:43.565Z,99962.00
2022-10-14T10:56:08.429Z,99961.97
2022-10-14T10:58:49.982Z,99968.91
2022-10-14T11:01:08.160Z,99955.81
2022-10-14T11:04:27.170Z,99968.78
2022-10-14T11:07:28.297Z,99944.53
2022-10-14T11:10:13.654Z,99964.75
2022-10-14T11:12:59.904Z,99962.28
2022-10-14T11:15:48.572Z,99965.84
2022-10-14T11:18:20.847Z,99956.25
2022-10-14T11:20:41.017Z,99962.38
2022-10-14T11:23:24.300Z,99960.63
2022-10-14T11:25:36.311Z,99964.97
2022-10-14T11:28:13.436Z,99964.97
2022-10-14T11:30:19.049Z,99951.03
2022-10-14T11:32:45.869Z,99962.38
2022-10-14T11:34:48.219Z,99955.41
2022-10-14T11:37:09.779Z,99961.50
2022-10-14T11:39:59.635Z,99961.50
2022-10-14T11:42:41.522Z,99975.44
2022-10-14T11:45:29.096Z,99971.88
2022-10-14T11:48:15.679Z,99957.94
2022-10-14T11:50:40.784Z,99960.56
2022-10-14T11:53:13.302Z,99961.41
2022-10-14T11:55:46.378Z,99951.75
2022-10-14T11:58:18.455Z,99956.97
2022-10-14T12:00:36.238Z,99965.69
2022-10-14T12:03:20.665Z,99971.72
2022-10-14T12:05:47.946Z,99963.84
2022-10-14T12:08:02.852Z,99963.88
2022-10-14T12:10:15.528Z,99957.78
2022-10-14T12:12:22.496Z,99956.88
2022-10-14T12:14:44.943Z,99952.53
2022-10-14T12:17:00.432Z,99949.00
2022-10-14T12:19:19.635Z,99944.66
2022-10-14T12:22:12.784Z,99954.22
2022-10-14T12:24:31.983Z,99939.38
2022-10-14T12:26:57.584Z,99933.25
2022-10-14T12:29:15.581Z,99921.00
2022-10-14T12:31:38.903Z,99929.66
2022-10-14T12:34:30.945Z,99937.44
2022-10-14T12:36:45.921Z,99937.41
2022-10-14T12:39:34.903Z,99915.56
2022-10-14T12:42:10.140Z,99936.44
2022-10-14T12:44:49.888Z,99925.09
2022-10-14T12:46:53.637Z,99928.56
2022-10-14T12:48:55.884Z,99923.31
2022-10-14T12:51:17.983Z,99929.41
2022-10-14T12:53:34.029Z,99926.78
2022-10-14T12:55:51.039Z,99915.41
2022-10-14T12:58:06.510Z,99905.81
2022-10-14T13:00:36.182Z,99923.22
2022-10-14T13:02:44.896Z,99920.56
2022-10-14T13:04:53.579Z,99919.69
2022-10-14T13:07:35.699Z,99918.81
2022-10-14T13:09:58.727Z,99913.50
2022-10-14T13:12:20.215Z,99922.31
2022-10-14T13:14:58.439Z,99921.50
2022-10-14T13:17:04.536Z,99923.34
2022-10-14T13:19:38.001Z,99915.59
2022-10-14T13:21:43.071Z,99917.41
2022-10-14T13:23:57.579Z,99906.09
2022-10-14T13:26:10.434Z,99916.56
2022-10-14T13:28:35.821Z,99898.28
2022-10-14T13:30:59.218Z,99920.09
2022-10-14T13:33:21.127Z,99908.75
2022-10-14T13:36:05.770Z,99899.16
2022-10-14T13:38:24.090Z,99893.94
2022-10-14T13:40:44.396Z,99913.13
2022-10-14T13:43:00.713Z,99903.50
2022-10-14T13:45:15.861Z,99920.94
2022-10-14T13:47:30.527Z,99893.00
2022-10-14T13:49:44.496Z,99916.53
2022-10-14T13:52:04.591Z,99899.09
2022-10-14T13:54:38.000Z,99912.94
2022-10-14T14:00:33.194Z,99899.59
2022-10-14T14:02:29.961Z,99906.47
2022-10-14T14:04:51.789Z,99897.63
2022-10-14T14:07:27.804Z,99907.22
2022-10-14T14:09:39.745Z,99915.88
2022-10-14T14:11:59.573Z,99908.91
2022-10-14T14:14:23.051Z,99909.84
2022-10-14T14:17:00.812Z,99895.94
2022-10-14T14:19:29.292Z,99907.25
2022-10-14T14:21:41.977Z,99903.75
2022-10-14T14:23:54.756Z,99910.81
2022-10-14T14:26:18.873Z,99911.69
2022-10-14T14:28:36.501Z,99902.16
2022-10-14T14:30:55.505Z,99903.91
2022-10-14T14:33:13.745Z,99902.19
2022-10-14T14:35:29.083Z,99898.69
2022-10-14T14:37:56.495Z,99901.38
2022-10-14T14:40:24.940Z,99900.53
2022-10-14T14:42:42.777Z,99903.09
2022-10-14T14:44:59.635Z,99906.66
2022-10-14T14:47:13.228Z,99898.81
2022-10-14T14:49:38.667Z,99907.53
2022-10-14T14:51:53.324Z,99906.69
2022-10-14T14:54:08.013Z,99900.53
2022-10-14T14:56:32.452Z,99897.97
2022-10-14T14:58:51.145Z,99894.47
2022-10-14T15:01:19.535Z,99897.06
2022-10-14T15:04:12.341Z,99883.16
2022-10-14T15:06:27.130Z,99880.50
2022-10-14T15:08:42.039Z,99888.31
2022-10-14T15:10:57.773Z,99900.50
2022-10-14T15:13:32.919Z,99896.16
2022-10-14T15:15:35.278Z,99910.91
2022-10-14T15:17:47.166Z,99909.16
2022-10-14T15:19:50.092Z,99894.28
2022-10-14T15:22:22.828Z,99910.88
2022-10-14T15:25:00.681Z,99904.78
2022-10-14T15:27:35.741Z,99909.13
2022-10-14T15:30:17.709Z,99905.59
2022-10-14T15:32:32.549Z,99889.84
2022-10-14T15:34:46.038Z,99885.44
2022-10-14T15:37:00.269Z,99886.28
2022-10-14T15:39:14.914Z,99901.16
2022-10-14T15:41:29.249Z,99901.97
2022-10-14T15:43:42.976Z,99901.06
2022-10-14T15:46:18.668Z,99855.59
2022-10-14T15:48:30.768Z,99888.81
2022-10-14T15:50:46.936Z,99917.63
2022-10-14T15:52:59.312Z,99905.44
2022-10-14T15:55:22.037Z,99892.34
2022-10-14T15:57:35.287Z,99908.06
2022-10-14T15:59:53.444Z,99871.44
2022-10-14T16:02:33.192Z,99888.03
2022-10-14T16:05:07.096Z,99902.88
2022-10-14T16:07:20.410Z,99888.00
2022-10-14T16:09:34.286Z,99898.50
2022-10-14T16:11:49.445Z,99908.06
2022-10-14T16:14:01.344Z,99895.81
2022-10-14T16:16:19.276Z,99852.19
2022-10-14T16:18:32.725Z,99904.63
2022-10-14T16:20:46.178Z,99884.56
2022-10-14T16:23:04.933Z,99899.44
2022-10-14T16:25:33.774Z,99903.84
2022-10-14T16:27:47.207Z,99902.03
2022-10-14T16:30:01.417Z,99895.06
2022-10-14T16:32:14.355Z,99908.19
2022-10-14T16:35:08.649Z,99914.34
2022-10-14T16:37:26.135Z,99918.66
2022-10-14T16:39:40.468Z,99909.94
2022-10-14T16:41:56.134Z,99917.84
2022-10-14T16:44:24.753Z,99915.19
2022-10-14T16:46:48.817Z,99921.31
2022-10-14T16:48:51.026Z,99925.69
2022-10-14T16:50:54.159Z,99921.34
2022-10-14T16:53:16.594Z,99913.47
2022-10-14T16:55:30.929Z,99900.44
2022-10-14T16:57:44.378Z,99913.50
2022-10-14T16:59:59.394Z,99914.34
2022-10-14T17:02:15.316Z,99890.81
2022-10-14T17:04:31.065Z,99901.28
2022-10-14T17:06:42.949Z,99913.50
2022-10-14T17:08:59.601Z,99903.94
2022-10-14T17:11:12.983Z,99914.38
2022-10-14T17:13:25.681Z,99913.53
2022-10-14T17:15:45.398Z,99908.31
2022-10-14T17:18:01.913Z,99909.19
2022-10-14T17:20:16.218Z,99914.44
2022-10-14T17:22:30.269Z,99911.81
2022-10-14T17:24:44.350Z,99905.72
2022-10-14T17:26:58.797Z,99905.66
2022-10-14T17:29:15.698Z,99905.66
2022-10-14T17:31:31.825Z,99903.91
2022-10-14T17:33:45.331Z,99913.53
2022-10-14T17:36:01.941Z,99904.78
2022-10-14T17:38:14.679Z,99885.56
2022-10-14T17:40:16.864Z,99910.03
2022-10-14T17:42:19.293Z,99915.22
2022-10-14T17:44:23.212Z,99909.09
2022-10-14T17:46:27.393Z,99915.22
2022-10-14T17:48:30.660Z,99920.44
2022-10-14T17:50:38.801Z,99921.34
2022-10-14T17:52:40.934Z,99902.13
2022-10-14T17:54:57.566Z,99918.72
2022-10-14T17:57:17.646Z,99914.34
2022-10-14T17:59:33.015Z,99917.84
2022-10-14T18:02:03.815Z,99899.53
2022-10-14T18:06:37.588Z,99921.34
2022-10-14T18:08:48.217Z,99908.25
2022-10-14T18:10:50.618Z,99915.22
2022-10-14T18:12:53.022Z,99925.66
2022-10-14T18:14:55.294Z,99926.50
2022-10-14T18:17:12.532Z,99914.31
2022-10-14T18:19:27.291Z,99916.88
2022-10-14T18:21:42.707Z,99927.38
2022-10-14T18:23:58.430Z,99909.91
2022-10-14T18:26:14.830Z,99916.00
2022-10-14T18:28:34.871Z,99923.84
2022-10-14T18:30:48.680Z,99925.56
2022-10-14T18:33:02.964Z,99912.44
2022-10-14T18:35:17.209Z,99913.19
2022-10-14T18:37:38.585Z,99932.38
2022-10-14T18:40:02.380Z,99927.03
2022-10-14T18:42:19.914Z,99921.69
2022-10-14T18:44:38.106Z,99921.56
2022-10-14T18:46:53.535Z,99921.41
2022-10-14T18:49:10.387Z,99934.31
2022-10-14T18:51:27.511Z,99922.78
2022-10-14T18:53:42.340Z,99925.25
2022-10-14T18:55:44.832Z,99900.56
2022-10-14T18:57:47.186Z,99918.75
2022-10-14T19:00:03.022Z,99940.41
2022-10-14T19:02:23.260Z,99913.09
2022-10-14T19:04:36.745Z,99871.88
2022-10-14T19:06:59.821Z,99932.13
2022-10-14T19:09:14.742Z,99931.00
2022-10-14T19:11:28.999Z,99934.34
2022-10-14T19:13:43.654Z,99933.28
2022-10-14T19:16:04.839Z,99926.09
2022-10-14T19:18:19.329Z,99928.47
2022-10-14T19:20:40.381Z,99936.13
2022-10-14T19:22:56.620Z,99936.84
2022-10-14T19:25:09.846Z,99932.16
2022-10-14T19:27:25.830Z,99946.00
2022-10-14T19:29:39.499Z,99942.38
2022-10-14T19:31:54.655Z,99929.97
2022-10-14T19:34:11.016Z,99937.75
2022-10-14T19:36:29.758Z,99935.03
2022-10-14T19:38:52.261Z,99937.50
2022-10-14T19:41:08.869Z,99938.22
2022-10-14T19:43:22.166Z,99925.84
2022-10-14T19:45:41.016Z,99912.66
2022-10-14T19:47:55.336Z,99930.81
2022-10-14T19:50:10.055Z,99937.75
2022-10-14T19:52:23.911Z,99928.88
2022-10-14T19:54:37.975Z,99936.56
2022-10-14T19:56:52.226Z,99946.06
2022-10-14T19:59:06.644Z,99948.59
2022-10-14T20:01:08.966Z,99950.25
2022-10-14T20:03:11.380Z,99949.22
2022-10-14T20:05:19.539Z,99951.59
2022-10-14T20:07:22.004Z,99955.97
2022-10-14T20:09:33.643Z,99954.94
2022-10-14T20:11:50.009Z,99947.00
2022-10-14T20:14:03.542Z,99934.53
2022-10-14T20:16:17.734Z,99950.28
2022-10-14T20:18:30.433Z,99943.97
2022-10-14T20:20:44.451Z,99955.25
2022-10-14T20:22:58.626Z,99925.25
2022-10-14T20:25:15.717Z,99952.38
2022-10-14T20:27:28.640Z,99932.97
2022-10-14T20:29:43.104Z,99943.38
2022-10-14T20:31:57.146Z,99940.66
2022-10-14T20:34:11.515Z,99930.88
2022-10-14T20:36:28.423Z,99909.69
2022-10-14T20:38:42.093Z,99928.94
2022-10-14T20:40:55.557Z,99922.72
2022-10-14T20:43:08.244Z,99916.50
2022-10-14T20:45:20.936Z,99932.13
2022-10-14T20:47:34.947Z,99933.75
2022-10-14T20:49:49.315Z,99927.50
2022-10-14T20:52:01.950Z,99927.28
2022-10-14T20:54:15.052Z,99943.03
2022-10-14T20:56:32.459Z,99944.63
2022-10-14T20:58:46.057Z,99930.50
2022-10-14T21:01:07.746Z,99943.59
2022-10-14T21:03:20.776Z,99928.50
2022-10-14T21:05:37.719Z,99939.81
2022-10-14T21:07:52.883Z,99954.53
2022-10-14T21:10:07.096Z,99926.50
2022-10-14T21:12:21.371Z,99950.75
2022-10-14T21:14:35.024Z,99955.09
2022-10-14T21:16:37.555Z,99950.72
2022-10-14T21:18:39.791Z,99946.25
2022-10-14T21:20:42.046Z,99931.31
2022-10-14T21:22:55.648Z,99900.59
2022-10-14T21:24:57.964Z,99941.81
2022-10-14T21:27:00.104Z,99950.44
2022-10-14T21:29:02.759Z,99950.41
2022-10-14T21:31:10.097Z,99949.44
2022-10-14T21:33:12.344Z,99948.47
2022-10-14T21:35:14.567Z,99943.13
2022-10-14T21:37:20.650Z,99937.88
2022-10-14T21:39:39.005Z,99947.44
2022-10-14T21:41:51.542Z,99950.94
2022-10-14T21:44:05.381Z,99927.28
2022-10-14T21:46:31.451Z,99951.84
2022-10-14T21:48:45.604Z,99959.72
2022-10-14T21:51:14.051Z,99949.13
2022-10-14T21:53:27.168Z,99949.06
2022-10-14T21:55:29.466Z,99966.50
2022-10-14T21:57:31.639Z,99958.69
2022-10-14T21:59:36.323Z,99957.91
2022-10-14T22:01:39.198Z,99957.22
2022-10-14T22:03:42.512Z,99963.41
2022-10-14T22:05:45.081Z,99969.72
2022-10-14T22:07:48.023Z,99962.75
2022-10-14T22:10:00.539Z,99963.81
2022-10-14T22:12:14.891Z,99962.44
2022-10-14T22:14:43.109Z,99959.00
2022-10-14T22:16:55.963Z,99966.09
2022-10-14T22:19:11.865Z,99960.28
2022-10-14T22:21:26.030Z,99972.78
2022-10-14T22:23:40.455Z,99960.00
2022-10-14T22:25:45.817Z,99954.97
2022-10-14T22:27:47.866Z,99956.91
2022-10-14T22:29:49.981Z,99953.66
2022-10-14T22:31:52.304Z,99923.19
2022-10-14T22:33:54.853Z,99967.22
2022-10-14T22:36:10.456Z,99969.28
2022-10-14T22:38:13.393Z,99960.81
2022-10-14T22:40:26.388Z,99972.34
2022-10-14T22:42:42.054Z,99955.88
2022-10-14T22:44:54.708Z,99963.22
2022-10-14T22:47:07.392Z,99967.75
2022-10-14T22:49:20.040Z,99952.13
2022-10-14T22:51:40.782Z,99961.94
2022-10-14T22:53:54.118Z,99959.41
2022-10-14T22:56:10.276Z,99948.97
2022-10-14T22:58:23.330Z,99967.63
2022-10-14T23:00:35.849Z,99949.16
2022-10-14T23:02:49.967Z,99966.06
2022-10-14T23:05:02.420Z,99964.38
2022-10-14T23:07:15.273Z,99952.22
2022-10-14T23:09:17.614Z,99940.88
2022-10-14T23:11:22.758Z,99965.50
2022-10-14T23:13:25.905Z,99964.66
2022-10-14T23:15:28.717Z,99961.16
2022-10-14T23:17:31.073Z,99963.03
2022-10-14T23:19:33.480Z,99960.47
2022-10-14T23:21:37.834Z,99950.06
2022-10-14T23:23:40.623Z,99959.75
2022-10-14T23:25:53.530Z,99957.19
2022-10-14T23:28:05.702Z,99966.00
2022-10-14T23:30:18.663Z,99954.63
2022-10-14T23:32:31.171Z,99959.03
2022-10-14T23:34:43.506Z,99974.81
2022-10-14T23:36:56.428Z,99971.41
2022-10-14T23:39:09.378Z,99970.47
2022-10-14T23:41:22.921Z,99967.97
2022-10-14T23:43:35.756Z,99972.28
2022-10-14T23:45:48.497Z,99945.19
2022-10-14T23:48:00.908Z,99959.19
2022-10-14T23:50:13.831Z,99966.22
2022-10-14T23:52:26.857Z,99953.06
2022-10-14T23:54:29.021Z,99962.81
2022-10-14T23:56:31.169Z,99964.59
2022-10-14T23:58:33.857Z,99971.56
